createdAt,value
2018-09-08T00:01:51.373Z,3.70
2018-09-08T00:04:19.771Z,3.30
2018-09-08T00:06:52.444Z,4.20
2018-09-08T00:09:20.822Z,3.37
2018-09-08T00:11:49.374Z,3.47
2018-09-08T00:14:17.908Z,3.40
2018-09-08T00:16:51.572Z,3.67
2018-09-08T00:19:25.444Z,3.43
2018-09-08T00:21:59.137Z,3.60
2018-09-08T00:24:32.980Z,3.53
2018-09-08T00:27:00.527Z,3.97
2018-09-08T00:29:33.166Z,3.80
2018-09-08T00:32:04.119Z,3.40
2018-09-08T00:34:32.518Z,3.70
2018-09-08T00:37:00.881Z,3.80
2018-09-08T00:39:29.207Z,3.90
2018-09-08T00:41:57.524Z,4.40
2018-09-08T00:44:25.835Z,3.57
2018-09-08T00:46:54.207Z,3.70
2018-09-08T00:49:22.544Z,3.70
2018-09-08T00:51:50.940Z,4.07
2018-09-08T00:54:19.248Z,3.80
2018-09-08T00:56:47.599Z,4.10
2018-09-08T00:59:16.044Z,4.30
2018-09-08T01:01:44.419Z,3.90
2018-09-08T01:04:12.814Z,4.10
2018-09-08T01:06:41.564Z,4.10
2018-09-08T01:09:09.943Z,4.43
2018-09-08T01:11:38.361Z,4.10
2018-09-08T01:14:07.007Z,4.30
2018-09-08T01:16:35.290Z,4.53
2018-09-08T01:19:03.693Z,4.27
2018-09-08T01:21:32.728Z,4.17
2018-09-08T01:24:01.285Z,3.87
2018-09-08T01:26:29.612Z,4.07
2018-09-08T01:28:57.999Z,3.87
2018-09-08T01:31:26.404Z,3.80
2018-09-08T01:33:54.901Z,3.60
2018-09-08T01:36:23.331Z,3.83
2018-09-08T01:38:51.627Z,3.50
2018-09-08T01:41:19.951Z,3.67
2018-09-08T01:43:48.335Z,3.97
2018-09-08T01:46:16.704Z,3.90
2018-09-08T01:48:45.046Z,3.80
2018-09-08T01:51:13.504Z,4.33
2018-09-08T01:53:41.840Z,4.33
2018-09-08T01:56:10.187Z,3.87
2018-09-08T01:58:38.787Z,4.10
2018-09-08T02:01:07.182Z,4.53
2018-09-08T02:03:35.600Z,4.63
2018-09-08T02:06:04.039Z,4.40
2018-09-08T02:08:32.371Z,4.60
2018-09-08T02:11:00.792Z,4.40
2018-09-08T02:13:29.219Z,4.27
2018-09-08T02:15:57.623Z,4.30
2018-09-08T02:18:26.155Z,4.43
2018-09-08T02:20:54.507Z,4.63
2018-09-08T02:23:22.870Z,4.80
2018-09-08T02:25:51.271Z,4.30
2018-09-08T02:28:19.582Z,4.43
2018-09-08T02:30:48.027Z,4.40
2018-09-08T02:33:16.401Z,4.60
2018-09-08T02:35:44.822Z,4.30
2018-09-08T02:38:13.154Z,4.57
2018-09-08T02:40:41.510Z,4.30
2018-09-08T02:43:09.941Z,4.50
2018-09-08T02:45:38.369Z,4.80
2018-09-08T02:48:06.779Z,4.27
2018-09-08T02:50:40.200Z,4.67
2018-09-08T02:53:09.870Z,4.93
2018-09-08T02:55:37.489Z,4.80
2018-09-08T02:58:04.797Z,5.30
2018-09-08T03:00:32.418Z,4.53
2018-09-08T03:02:59.733Z,4.87
2018-09-08T03:05:27.044Z,5.00
2018-09-08T03:07:54.421Z,4.90
2018-09-08T03:10:22.173Z,5.30
2018-09-08T03:12:49.501Z,4.93
2018-09-08T03:15:16.833Z,4.90
2018-09-08T03:17:44.128Z,4.60
2018-09-08T03:20:11.493Z,4.83
2018-09-08T03:22:38.796Z,5.07
2018-09-08T03:25:06.079Z,4.87
2018-09-08T03:27:33.343Z,4.50
2018-09-08T03:30:00.631Z,4.70
2018-09-08T03:32:27.963Z,5.10
2018-09-08T03:34:55.259Z,4.53
2018-09-08T03:37:22.549Z,5.33
2018-09-08T03:39:49.812Z,4.90
2018-09-08T03:42:17.151Z,4.90
2018-09-08T03:44:44.386Z,5.00
2018-09-08T03:47:11.716Z,5.13
2018-09-08T03:49:38.980Z,4.90
2018-09-08T03:52:06.249Z,5.27
2018-09-08T03:54:33.560Z,4.77
2018-09-08T03:57:00.874Z,5.17
2018-09-08T03:59:28.184Z,5.07
2018-09-08T04:01:55.471Z,5.00
2018-09-08T04:04:23.813Z,4.47
2018-09-08T04:06:52.195Z,4.93
2018-09-08T04:09:20.607Z,4.80
2018-09-08T04:11:49.010Z,5.07
2018-09-08T04:14:17.298Z,4.90
2018-09-08T04:16:45.611Z,4.77
2018-09-08T04:19:13.955Z,4.60
2018-09-08T04:21:42.375Z,5.00
2018-09-08T04:24:10.812Z,4.57
2018-09-08T04:26:39.814Z,4.83
2018-09-08T04:29:08.126Z,5.00
2018-09-08T04:31:36.440Z,5.03
2018-09-08T04:34:04.740Z,5.40
2018-09-08T04:36:33.090Z,4.97
2018-09-08T04:39:01.441Z,4.87
2018-09-08T04:41:30.677Z,5.10
2018-09-08T04:43:59.048Z,5.10
2018-09-08T04:46:27.430Z,4.70
2018-09-08T04:48:55.869Z,4.80
2018-09-08T04:51:24.271Z,4.77
2018-09-08T04:53:52.621Z,5.20
2018-09-08T04:56:21.036Z,5.30
2018-09-08T04:58:49.659Z,4.97
2018-09-08T05:01:18.055Z,5.50
2018-09-08T05:03:46.436Z,5.00
2018-09-08T05:06:14.870Z,5.47
2018-09-08T05:08:43.297Z,5.50
2018-09-08T05:11:11.776Z,5.47
2018-09-08T05:13:40.276Z,5.33
2018-09-08T05:16:08.883Z,5.83
2018-09-08T05:18:37.395Z,5.27
2018-09-08T05:21:05.804Z,5.30
2018-09-08T05:23:34.213Z,5.63
2018-09-08T05:26:02.603Z,5.30
2018-09-08T05:28:31.018Z,5.40
2018-09-08T05:30:59.393Z,5.63
2018-09-08T05:33:27.860Z,5.90
2018-09-08T05:35:56.269Z,5.53
2018-09-08T05:38:24.631Z,5.53
2018-09-08T05:40:53.018Z,5.47
2018-09-08T05:43:21.365Z,5.43
2018-09-08T05:45:49.690Z,5.37
2018-09-08T05:48:18.047Z,5.20
2018-09-08T05:50:46.434Z,4.87
2018-09-08T05:53:14.735Z,4.67
2018-09-08T05:55:43.032Z,5.40
2018-09-08T05:58:11.405Z,4.40
2018-09-08T06:00:39.696Z,4.77
2018-09-08T06:03:08.044Z,5.33
2018-09-08T06:05:36.332Z,5.00
2018-09-08T06:08:04.635Z,4.83
2018-09-08T06:10:32.919Z,4.90
2018-09-08T06:13:01.247Z,5.20
2018-09-08T06:15:29.602Z,5.20
2018-09-08T06:17:57.918Z,4.40
2018-09-08T06:20:26.263Z,4.60
2018-09-08T06:22:54.625Z,4.60
2018-09-08T06:25:23.006Z,4.33
2018-09-08T06:27:51.318Z,4.60
2018-09-08T06:30:19.621Z,4.60
2018-09-08T06:32:47.937Z,4.60
2018-09-08T06:35:16.253Z,4.47
2018-09-08T06:37:44.593Z,4.20
2018-09-08T06:40:12.920Z,4.37
2018-09-08T06:42:41.220Z,4.10
2018-09-08T06:45:09.583Z,4.50
2018-09-08T06:47:37.872Z,3.60
2018-09-08T06:50:06.168Z,3.90
2018-09-08T06:52:34.524Z,3.97
2018-09-08T06:55:02.843Z,4.33
2018-09-08T06:57:31.186Z,4.50
2018-09-08T06:59:59.474Z,4.10
2018-09-08T07:02:27.772Z,3.73
2018-09-08T07:04:56.088Z,3.87
2018-09-08T07:07:24.431Z,3.13
2018-09-08T07:09:52.764Z,3.80
2018-09-08T07:12:21.109Z,3.10
2018-09-08T07:14:49.407Z,3.40
2018-09-08T07:17:17.715Z,3.10
2018-09-08T07:19:46.041Z,2.97
2018-09-08T07:22:14.384Z,3.00
2018-09-08T07:24:42.773Z,3.13
2018-09-08T07:27:11.178Z,3.30
2018-09-08T07:29:39.505Z,2.50
2018-09-08T07:32:07.822Z,2.60
2018-09-08T07:34:36.100Z,2.63
2018-09-08T07:37:04.422Z,2.30
2018-09-08T07:39:32.759Z,2.33
2018-09-08T07:42:01.293Z,2.60
2018-09-08T07:44:29.724Z,2.13
2018-09-08T07:46:58.043Z,2.20
2018-09-08T07:49:26.659Z,2.20
2018-09-08T07:51:54.981Z,2.40
2018-09-08T07:54:23.303Z,2.43
2018-09-08T07:56:51.626Z,2.03
2018-09-08T07:59:20.078Z,1.93
2018-09-08T08:01:48.361Z,1.60
2018-09-08T08:04:16.740Z,2.00
2018-09-08T08:06:45.117Z,2.00
2018-09-08T08:09:13.407Z,1.90
2018-09-08T08:11:41.709Z,2.87
2018-09-08T08:14:10.340Z,3.20
2018-09-08T08:16:38.723Z,1.90
2018-09-08T08:19:07.197Z,1.50
2018-09-08T08:21:35.503Z,1.33
2018-09-08T08:24:03.823Z,1.00
2018-09-08T08:26:32.177Z,1.20
2018-09-08T08:29:00.596Z,2.30
2018-09-08T08:31:28.891Z,2.00
2018-09-08T08:33:57.228Z,1.73
2018-09-08T08:36:25.731Z,1.20
2018-09-08T08:38:54.977Z,1.40
2018-09-08T08:41:23.312Z,1.17
2018-09-08T08:43:51.943Z,1.40
2018-09-08T08:46:20.285Z,1.30
2018-09-08T08:48:48.654Z,1.37
2018-09-08T08:51:28.296Z,1.30
2018-09-08T08:54:07.848Z,1.10
2018-09-08T08:56:36.184Z,1.30
2018-09-08T08:59:04.530Z,1.20
2018-09-08T09:01:32.856Z,1.37
2018-09-08T09:04:01.178Z,1.17
2018-09-08T09:06:29.573Z,7.40
2018-09-08T09:08:57.932Z,2.20
2018-09-08T09:11:26.290Z,1.50
2018-09-08T09:13:54.620Z,1.23
2018-09-08T09:16:22.939Z,1.27
2018-09-08T09:19:03.426Z,1.37
2018-09-08T09:21:42.753Z,1.20
2018-09-08T09:24:50.517Z,1.13
2018-09-08T09:27:18.422Z,1.10
2018-09-08T09:29:46.750Z,1.13
2018-09-08T09:32:15.134Z,4.50
2018-09-08T09:34:43.445Z,3.20
2018-09-08T09:37:11.800Z,1.60
2018-09-08T09:39:40.930Z,1.27
2018-09-08T09:42:09.404Z,1.40
2018-09-08T09:44:37.753Z,1.27
2018-09-08T09:47:06.079Z,1.20
2018-09-08T09:49:34.494Z,1.10
2018-09-08T09:52:02.853Z,1.00
2018-09-08T09:54:31.184Z,1.00
2018-09-08T09:56:59.500Z,1.00
2018-09-08T09:59:27.820Z,1.87
2018-09-08T10:02:01.682Z,1.40
2018-09-08T10:04:30.050Z,1.40
2018-09-08T10:06:58.401Z,1.20
2018-09-08T10:09:26.717Z,1.23
2018-09-08T10:11:55.089Z,1.10
2018-09-08T10:14:23.356Z,1.40
2018-09-08T10:16:51.666Z,14.93
2018-09-08T10:19:20.029Z,1.57
2018-09-08T10:21:48.319Z,1.70
2018-09-08T10:24:16.649Z,1.43
2018-09-08T10:26:44.987Z,1.00
2018-09-08T10:29:13.328Z,1.10
2018-09-08T10:31:41.622Z,1.63
2018-09-08T10:34:10.018Z,1.30
2018-09-08T10:36:38.361Z,1.60
2018-09-08T10:39:07.564Z,1.30
2018-09-08T10:41:35.854Z,1.23
2018-09-08T10:44:04.210Z,0.93
2018-09-08T10:46:32.552Z,1.30
2018-09-08T10:49:00.956Z,1.47
2018-09-08T10:52:38.560Z,1.30
2018-09-08T10:55:06.863Z,1.00
2018-09-08T10:57:35.199Z,1.23
2018-09-08T11:00:04.254Z,1.10
2018-09-08T11:02:33.037Z,1.17
2018-09-08T11:05:01.836Z,1.13
2018-09-08T11:07:30.650Z,1.13
2018-09-08T11:09:59.039Z,1.00
2018-09-08T11:12:27.881Z,2.87
2018-09-08T11:14:56.245Z,2.13
2018-09-08T11:17:24.755Z,1.30
2018-09-08T11:19:53.404Z,1.10
2018-09-08T11:22:21.739Z,0.90
2018-09-08T11:24:50.100Z,1.30
2018-09-08T11:27:18.394Z,1.20
2018-09-08T11:29:46.729Z,1.10
2018-09-08T11:32:15.957Z,0.80
2018-09-08T11:34:44.265Z,1.10
2018-09-08T11:37:12.576Z,1.00
2018-09-08T11:39:40.934Z,1.00
2018-09-08T11:42:09.218Z,1.27
2018-09-08T11:44:37.566Z,1.03
2018-09-08T11:47:05.928Z,1.30
2018-09-08T11:49:34.353Z,8.37
2018-09-08T11:52:02.547Z,11.23
2018-09-08T11:54:30.890Z,4.40
2018-09-08T11:56:59.190Z,1.03
2018-09-08T11:59:27.601Z,1.10
2018-09-08T12:01:55.926Z,1.20
2018-09-08T12:04:24.618Z,1.17
2018-09-08T12:06:52.933Z,1.30
2018-09-08T12:09:21.236Z,1.10
2018-09-08T12:11:49.604Z,1.00
2018-09-08T12:14:17.917Z,0.90
2018-09-08T12:16:46.261Z,1.00
2018-09-08T12:19:14.685Z,0.90
2018-09-08T12:21:42.907Z,1.10
2018-09-08T12:24:11.232Z,1.10
2018-09-08T12:26:39.549Z,1.20
2018-09-08T12:29:07.813Z,1.20
2018-09-08T12:31:36.125Z,0.90
2018-09-08T12:34:04.412Z,0.90
2018-09-08T12:36:32.747Z,1.20
2018-09-08T12:39:01.186Z,1.00
2018-09-08T12:41:29.390Z,1.20
2018-09-08T12:43:57.663Z,1.00
2018-09-08T12:46:26.000Z,1.00
2018-09-08T12:48:54.293Z,1.30
2018-09-08T12:51:22.720Z,1.10
2018-09-08T12:53:51.013Z,0.97
2018-09-08T12:56:19.318Z,0.97
2018-09-08T12:58:47.622Z,1.00
2018-09-08T13:01:15.939Z,1.00
2018-09-08T13:03:44.270Z,1.23
2018-09-08T13:06:12.582Z,0.97
2018-09-08T13:08:40.913Z,1.00
2018-09-08T13:11:09.227Z,1.00
2018-09-08T13:13:37.539Z,0.80
2018-09-08T13:16:06.033Z,1.00
2018-09-08T13:18:34.351Z,0.90
2018-09-08T13:21:02.632Z,0.97
2018-09-08T13:23:30.928Z,4.90
2018-09-08T13:25:59.261Z,1.10
2018-09-08T13:28:27.575Z,0.90
2018-09-08T13:30:55.897Z,0.97
2018-09-08T13:33:24.221Z,0.97
2018-09-08T13:35:52.514Z,1.00
2018-09-08T13:38:20.804Z,1.13
2018-09-08T13:40:49.160Z,1.03
2018-09-08T13:43:17.447Z,1.27
2018-09-08T13:45:45.814Z,1.50
2018-09-08T13:48:14.190Z,1.10
2018-09-08T13:50:42.572Z,1.30
2018-09-08T13:53:10.887Z,1.03
2018-09-08T13:55:39.363Z,1.00
2018-09-08T13:58:07.646Z,0.90
2018-09-08T14:00:36.005Z,1.10
2018-09-08T14:03:04.311Z,1.10
2018-09-08T14:05:32.625Z,1.00
2018-09-08T14:08:03.708Z,1.17
2018-09-08T14:10:32.071Z,1.00
2018-09-08T14:13:00.352Z,1.20
2018-09-08T14:15:28.998Z,1.00
2018-09-08T14:17:57.271Z,0.90
2018-09-08T14:20:25.591Z,1.07
2018-09-08T14:22:53.926Z,1.00
2018-09-08T14:25:22.263Z,0.90
2018-09-08T14:27:50.603Z,1.10
2018-09-08T14:30:18.890Z,1.07
2018-09-08T14:32:47.187Z,1.10
2018-09-08T14:35:17.763Z,0.80
2018-09-08T14:37:47.412Z,1.10
2018-09-08T14:40:15.750Z,0.80
2018-09-08T14:42:44.073Z,0.90
2018-09-08T14:45:12.451Z,0.90
2018-09-08T14:47:40.887Z,1.00
2018-09-08T14:50:09.414Z,0.93
2018-09-08T14:52:37.729Z,1.10
2018-09-08T14:55:06.295Z,1.23
2018-09-08T14:57:34.602Z,1.20
2018-09-08T15:00:03.045Z,1.17
2018-09-08T15:05:06.340Z,1.10
2018-09-08T15:07:34.856Z,0.73
2018-09-08T15:10:03.191Z,0.93
2018-09-08T15:12:31.484Z,1.05
2018-09-08T15:14:59.956Z,1.05
2018-09-08T15:17:28.435Z,0.78
2018-09-08T15:19:56.753Z,1.10
2018-09-08T15:22:25.162Z,0.90
2018-09-08T15:24:53.540Z,1.17
2018-09-08T15:27:21.978Z,0.93
2018-09-08T15:29:50.270Z,1.00
2018-09-08T15:32:25.245Z,1.10
2018-09-08T15:34:53.592Z,1.20
2018-09-08T15:37:21.944Z,1.05
2018-09-08T15:39:50.256Z,0.93
2018-09-08T15:42:18.610Z,1.00
2018-09-08T15:44:46.905Z,1.05
2018-09-08T15:47:15.289Z,1.35
2018-09-08T15:49:43.573Z,1.27
2018-09-08T15:52:11.896Z,1.00
2018-09-08T15:54:40.213Z,1.00
2018-09-08T15:57:08.539Z,1.10
2018-09-08T15:59:36.882Z,1.10
2018-09-08T16:02:06.377Z,1.30
2018-09-08T16:04:34.771Z,1.52
2018-09-08T16:07:03.157Z,1.07
2018-09-08T16:09:31.531Z,1.17
2018-09-08T16:11:59.911Z,1.10
2018-09-08T16:14:35.704Z,1.17
2018-09-08T16:17:04.031Z,1.30
2018-09-08T16:19:32.393Z,1.12
2018-09-08T16:22:00.711Z,1.25
2018-09-08T16:24:29.020Z,1.40
2018-09-08T16:26:57.353Z,1.42
2018-09-08T16:29:25.652Z,1.70
2018-09-08T16:31:54.028Z,2.17
2018-09-08T16:34:22.332Z,1.17
2018-09-08T16:36:50.692Z,1.17
2018-09-08T16:39:18.988Z,1.40
2018-09-08T16:41:47.308Z,4.43
2018-09-08T16:44:15.748Z,7.43
2018-09-08T16:46:44.109Z,3.87
2018-09-08T16:49:12.452Z,2.37
2018-09-08T16:51:40.780Z,1.50
2018-09-08T16:54:09.067Z,1.70
2018-09-08T16:56:37.401Z,1.67
2018-09-08T16:59:05.716Z,1.50
2018-09-08T17:01:34.017Z,1.67
2018-09-08T17:04:02.322Z,1.40
2018-09-08T17:06:30.598Z,1.37
2018-09-08T17:08:59.677Z,1.37
2018-09-08T17:11:27.996Z,2.90
2018-09-08T17:13:57.424Z,1.53
2018-09-08T17:16:25.855Z,1.23
2018-09-08T17:18:54.179Z,1.53
2018-09-08T17:21:22.493Z,1.77
2018-09-08T17:23:50.806Z,1.53
2018-09-08T17:26:19.130Z,1.60
2018-09-08T17:28:47.434Z,2.10
2018-09-08T17:31:15.714Z,9.03
2018-09-08T17:33:44.035Z,5.60
2018-09-08T17:36:12.350Z,2.10
2018-09-08T17:38:40.711Z,2.17
2018-09-08T17:41:08.995Z,1.70
2018-09-08T17:43:37.302Z,2.10
2018-09-08T17:46:05.779Z,1.50
2018-09-08T17:48:34.118Z,1.73
2018-09-08T17:51:02.382Z,1.80
2018-09-08T17:53:30.681Z,1.60
2018-09-08T17:55:58.970Z,2.07
2018-09-08T17:58:27.301Z,1.63
2018-09-08T18:00:55.633Z,1.90
2018-09-08T18:03:23.940Z,1.60
2018-09-08T18:05:52.401Z,2.03
2018-09-08T18:08:26.754Z,1.70
2018-09-08T18:10:55.691Z,1.90
2018-09-08T18:13:25.007Z,1.90
2018-09-08T18:15:53.403Z,1.67
2018-09-08T18:18:21.978Z,1.70
2018-09-08T18:20:50.793Z,2.13
2018-09-08T18:23:19.118Z,1.93
2018-09-08T18:25:47.430Z,1.87
2018-09-08T18:28:15.757Z,2.47
2018-09-08T18:30:44.067Z,2.00
2018-09-08T18:33:12.456Z,2.37
2018-09-08T18:35:40.723Z,2.43
2018-09-08T18:38:09.332Z,2.37
2018-09-08T18:40:37.628Z,1.73
2018-09-08T18:43:05.908Z,2.43
2018-09-08T18:45:34.183Z,2.00
2018-09-08T18:48:02.737Z,2.07
2018-09-08T18:50:31.099Z,1.70
2018-09-08T18:52:59.399Z,1.77
2018-09-08T18:55:27.696Z,2.20
2018-09-08T18:57:56.025Z,2.17
2018-09-08T19:00:24.315Z,14.63
2018-09-08T19:02:52.609Z,15.37
2018-09-08T19:05:20.924Z,3.23
2018-09-08T19:07:49.374Z,2.30
2018-09-08T19:10:17.675Z,2.40
2018-09-08T19:12:45.951Z,2.53
2018-09-08T19:15:15.177Z,2.00
2018-09-08T19:17:44.058Z,1.97
2018-09-08T19:20:17.816Z,1.70
2018-09-08T19:22:46.094Z,2.00
2018-09-08T19:25:14.429Z,2.00
2018-09-08T19:27:42.712Z,2.10
2018-09-08T19:30:11.000Z,2.23
2018-09-08T19:32:39.255Z,2.20
2018-09-08T19:35:12.981Z,2.10
2018-09-08T19:37:41.251Z,2.20
2018-09-08T19:40:14.846Z,1.93
2018-09-08T19:42:43.145Z,2.00
2018-09-08T19:45:11.419Z,2.70
2018-09-08T19:47:45.203Z,2.53
2018-09-08T19:50:13.532Z,2.57
2018-09-08T19:52:47.135Z,2.30
2018-09-08T19:57:47.195Z,21.07
2018-09-08T20:00:15.504Z,10.93
2018-09-08T20:02:43.788Z,3.53
2018-09-08T20:05:12.091Z,2.60
2018-09-08T20:07:40.388Z,2.20
2018-09-08T20:10:08.698Z,2.53
2018-09-08T20:12:37.014Z,4.37
2018-09-08T20:15:05.654Z,5.47
2018-09-08T20:17:34.124Z,6.10
2018-09-08T20:20:02.410Z,5.73
2018-09-08T20:22:30.718Z,5.60
2018-09-08T20:24:59.016Z,5.37
2018-09-08T20:27:27.347Z,5.63
2018-09-08T20:29:55.619Z,4.80
2018-09-08T20:32:23.894Z,3.93
2018-09-08T20:34:52.207Z,3.87
2018-09-08T20:37:20.481Z,3.13
2018-09-08T20:39:48.775Z,3.30
2018-09-08T20:42:17.078Z,3.10
2018-09-08T20:44:45.382Z,3.23
2018-09-08T20:47:13.668Z,2.80
2018-09-08T20:49:42.035Z,2.70
2018-09-08T20:52:10.330Z,2.80
2018-09-08T20:54:38.677Z,2.73
2018-09-08T20:57:07.007Z,2.63
2018-09-08T20:59:35.316Z,3.13
2018-09-08T21:02:03.598Z,3.03
2018-09-08T21:04:31.899Z,3.07
2018-09-08T21:07:00.212Z,3.20
2018-09-08T21:09:28.526Z,3.70
2018-09-08T21:11:56.812Z,3.03
2018-09-08T21:14:25.096Z,3.30
2018-09-08T21:16:53.563Z,3.40
2018-09-08T21:19:21.903Z,3.17
2018-09-08T21:21:50.186Z,3.37
2018-09-08T21:24:18.466Z,2.60
2018-09-08T21:26:46.798Z,3.20
2018-09-08T21:29:15.072Z,3.33
2018-09-08T21:31:43.433Z,2.80
2018-09-08T21:34:11.740Z,2.80
2018-09-08T21:36:40.025Z,2.90
2018-09-08T21:39:08.981Z,2.80
2018-09-08T21:41:37.418Z,2.70
2018-09-08T21:44:05.851Z,2.50
2018-09-08T21:46:34.322Z,2.13
2018-09-08T21:49:02.803Z,2.53
2018-09-08T21:51:31.094Z,2.60
2018-09-08T21:53:59.386Z,2.90
2018-09-08T21:56:27.707Z,2.70
2018-09-08T21:58:56.004Z,2.70
2018-09-08T22:01:27.167Z,3.40
2018-09-08T22:03:56.038Z,3.40
2018-09-08T22:06:25.362Z,3.30
2018-09-08T22:08:53.650Z,2.93
2018-09-08T22:11:22.009Z,2.60
2018-09-08T22:13:50.343Z,3.40
2018-09-08T22:16:18.665Z,3.23
2018-09-08T22:18:46.947Z,3.90
2018-09-08T22:21:15.304Z,3.27
2018-09-08T22:23:43.564Z,3.00
2018-09-08T22:26:11.869Z,3.00
2018-09-08T22:28:40.165Z,3.20
2018-09-08T22:31:08.472Z,3.40
2018-09-08T22:33:36.773Z,3.10
2018-09-08T22:36:05.080Z,3.50
2018-09-08T22:38:33.411Z,4.00
2018-09-08T22:41:01.745Z,3.10
2018-09-08T22:43:30.006Z,3.60
2018-09-08T22:45:58.323Z,3.53
2018-09-08T22:48:26.609Z,3.70
2018-09-08T22:50:54.910Z,3.23
2018-09-08T22:53:23.201Z,3.50
2018-09-08T22:55:51.482Z,3.73
2018-09-08T22:58:19.750Z,3.60
2018-09-08T23:00:48.040Z,3.90
2018-09-08T23:03:16.415Z,4.80
2018-09-08T23:05:44.772Z,3.93
2018-09-08T23:08:13.027Z,3.83
2018-09-08T23:10:41.322Z,3.10
2018-09-08T23:13:09.623Z,2.90
2018-09-08T23:15:37.931Z,2.60
2018-09-08T23:18:06.258Z,2.93
2018-09-08T23:20:34.827Z,2.77
2018-09-08T23:23:03.115Z,2.50
2018-09-08T23:25:31.422Z,2.53
2018-09-08T23:27:59.698Z,2.57
2018-09-08T23:30:27.981Z,2.50
2018-09-08T23:32:56.266Z,2.70
2018-09-08T23:35:24.559Z,2.90
2018-09-08T23:37:52.849Z,2.57
2018-09-08T23:40:21.249Z,2.53
2018-09-08T23:42:49.510Z,2.30
2018-09-08T23:45:17.806Z,2.60
2018-09-08T23:47:46.087Z,2.77
2018-09-08T23:50:14.436Z,2.70
2018-09-08T23:52:43.462Z,2.70
2018-09-08T23:55:12.356Z,3.20
2018-09-08T23:57:40.667Z,3.20
